Etusivu
METAR-TAF:

METAR-TAF

Lentoasemat :

Tampere, Suomi

Tampere-Pirkkalan lentoasema

Leveyspiiri: 61-25N, Pituuspiiri: 023-35E, korkeus merenpinnasta: 112 m

Tämänhetkinen sää

Tämä raportti tehtiin 15 minuuttia sitten, kello 17.50 UTC
Tuuli 3 kn pohjoisesta
Lämpötila -16°C
Kosteus 84%
Ilmanpaine 1027 hPa
Näkyvyys 10 km tai enemmän
ei pilviä alle 1500 m:ssä eikä cumulonimbus-pilviä

METAR: EFTP 191750Z AUTO 35003KT CAVOK M16/M18 Q1027

Aika: 20:05 (18:05 UTC)

Sääennuste

Tämä raportti tehtiin 27 minuuttia sitten, kello 17.38 UTC
Ennuste voimassa 19. päivästä klo 18 UTC - 20. päivään klo 18 UTC
Tuuli 4 kn pohjoisesta/koillisesta
Näkyvyys 10 km tai enemmän
ei pilviä alle 1500 m:ssä eikä cumulonimbus-pilviä
Todennäköisyys 30%
20. päivästä klo 03 UTC - 20. päivään klo 10 UTC
Näkyvyys: 6000 m
Hajonneita pilviä 400 ft:n korkeudessa

TAF: EFTP 191738Z 1918/2018 03004KT CAVOK PROB30 2003/2010 6000 BKN004

Säähavainnot ja -ennusteet yli 4000 lentoasemalta (METAR- ja TAF-raportit).

Käytössä olevat sääasemat on merkitty karttaan keltaisilla ja punaisilla pisteillä.

Aseta hiiri pisteen päälle nähdäksesi sääaseman nimen.

Klikkaa sitten nähdäksesi säähavainnot ja -ennusteet.

Kartan vaihtaminen: klikkaa mustalla rastilla varustettuja vihreitä pisteitä, niin voit zoomata sisään; viivalla varustettua vihreää pistettä, niin voit zoomata ulos tai vihreitä nuolia, niin pääset viereisille kartoille.


METAR-TAF: